Time;durP1;ratioP1;P1;durP2;ratioP2;P2;SDS_P1;SDS_P2;PMS_P1;PMS_P2;Temp;Humidity;BMP_temperature;BMP_pressure;BME280_temperature;BME280_humidity;BME280_pressure;Samples;Min_cycle;Max_cycle;Signal;HPM_P1;HPM_P2
2022/09/01 00:01:02;;;;;;;1.67;1.10;;;16.50;99.90;;;;;;5036744;28;20458;-57
2022/09/01 00:03:28;;;;;;;1.25;0.80;;;16.40;99.90;;;;;;5036549;28;20551;-57
2022/09/01 00:05:55;;;;;;;1.52;0.80;;;16.50;99.90;;;;;;5036659;28;20455;-58
2022/09/01 00:08:22;;;;;;;1.27;0.80;;;16.50;99.90;;;;;;5037020;28;20057;-57
2022/09/01 00:10:48;;;;;;;3.33;0.90;;;16.40;99.90;;;;;;5036449;28;20400;-57
2022/09/01 00:13:14;;;;;;;4.03;0.70;;;16.40;99.90;;;;;;5036200;28;20491;-57
2022/09/01 00:15:40;;;;;;;1.45;0.80;;;16.40;99.90;;;;;;5036458;28;20041;-57
2022/09/01 00:18:05;;;;;;;2.20;0.63;;;16.40;99.90;;;;;;5036310;28;20045;-57
2022/09/01 00:20:31;;;;;;;1.40;0.70;;;16.40;99.90;;;;;;5018641;28;20046;-58
2022/09/01 00:22:59;;;;;;;2.72;0.90;;;16.40;99.90;;;;;;5035738;28;20064;-57
2022/09/01 00:25:26;;;;;;;1.20;0.80;;;16.50;99.90;;;;;;5036002;28;20588;-57
2022/09/01 00:27:53;;;;;;;1.88;0.77;;;16.40;99.90;;;;;;5036162;28;20034;-57
2022/09/01 00:30:19;;;;;;;2.55;0.80;;;16.30;99.90;;;;;;5036035;28;20052;-57
2022/09/01 00:32:46;;;;;;;1.23;0.85;;;16.30;99.90;;;;;;5036112;28;20139;-57
2022/09/01 00:35:17;;;;;;;2.42;1.00;;;16.30;99.90;;;;;;5047942;28;20071;-57
2022/09/01 00:37:44;;;;;;;1.52;0.75;;;16.20;99.90;;;;;;5055983;28;20056;-57
2022/09/01 00:40:13;;;;;;;0.88;0.70;;;16.20;99.90;;;;;;5055878;28;20399;-57
2022/09/01 00:42:40;;;;;;;1.20;0.70;;;16.20;99.90;;;;;;5055960;28;20395;-57
2022/09/01 00:45:09;;;;;;;1.73;0.80;;;16.20;99.90;;;;;;5055836;28;20041;-57
2022/09/01 00:47:35;;;;;;;2.53;0.98;;;16.20;99.90;;;;;;5055714;28;20041;-58
2022/09/01 00:50:03;;;;;;;2.15;0.93;;;16.10;99.90;;;;;;5055501;28;20052;-57
2022/09/01 00:52:34;;;;;;;1.35;0.80;;;16.10;99.90;;;;;;5055582;28;20051;-57
2022/09/01 00:55:08;;;;;;;1.83;0.70;;;16.10;99.90;;;;;;5055549;28;20045;-57
2022/09/01 00:57:34;;;;;;;0.93;0.68;;;16.00;99.90;;;;;;5055545;28;20041;-56
2022/09/01 01:00:17;;;;;;;1.20;0.90;;;16.00;99.90;;;;;;5055590;28;20076;-57
2022/09/01 01:02:43;;;;;;;2.90;0.75;;;16.00;99.90;;;;;;5055445;28;20059;-57
2022/09/01 01:05:10;;;;;;;2.28;0.80;;;16.00;99.90;;;;;;5055581;28;20049;-57
2022/09/01 01:07:41;;;;;;;1.40;0.70;;;16.00;99.90;;;;;;5037497;28;20180;-57
2022/09/01 01:10:13;;;;;;;3.00;0.90;;;16.00;99.90;;;;;;5055393;28;20049;-57
2022/09/01 01:12:39;;;;;;;0.68;0.60;;;16.00;99.90;;;;;;5055415;28;20053;-57
2022/09/01 01:15:08;;;;;;;2.53;0.77;;;16.00;99.90;;;;;;5055200;28;20048;-57
2022/09/01 01:17:34;;;;;;;1.60;0.70;;;16.00;99.90;;;;;;5055175;28;20044;-57
2022/09/01 01:23:04;;;;;;;1.30;0.70;;;16.00;99.90;;;;;;5054965;28;20048;-57
2022/09/01 01:25:44;;;;;;;0.60;0.60;;;16.00;99.90;;;;;;5037162;28;20059;-58
2022/09/01 01:28:15;;;;;;;0.55;0.55;;;16.00;99.90;;;;;;5055083;28;20083;-58
2022/09/01 01:30:49;;;;;;;1.45;0.70;;;16.00;99.90;;;;;;5054775;28;20403;-58
2022/09/01 01:33:16;;;;;;;3.15;0.70;;;16.00;99.90;;;;;;5054793;28;20080;-57
2022/09/01 01:35:42;;;;;;;2.05;0.70;;;16.00;99.90;;;;;;5020346;28;20130;-58
2022/09/01 01:38:08;;;;;;;1.10;0.65;;;16.00;99.90;;;;;;5034910;28;20124;-58
2022/09/01 01:40:34;;;;;;;3.13;0.80;;;16.00;99.90;;;;;;5034633;28;20127;-57
2022/09/01 01:43:00;;;;;;;1.08;0.70;;;16.10;99.90;;;;;;5034743;28;20048;-57
2022/09/01 01:45:27;;;;;;;0.80;0.60;;;16.00;99.90;;;;;;5035128;28;20042;-57
2022/09/01 01:47:55;;;;;;;3.28;0.70;;;16.00;99.90;;;;;;5034750;28;20096;-58
2022/09/01 01:50:32;;;;;;;0.55;0.50;;;16.00;99.90;;;;;;5034698;28;20053;-57
2022/09/01 01:52:58;;;;;;;7.68;0.70;;;16.10;99.90;;;;;;5034504;28;20046;-57
2022/09/01 01:55:27;;;;;;;0.98;0.82;;;16.00;99.90;;;;;;5034561;28;20045;-57
2022/09/01 01:57:55;;;;;;;1.08;0.60;;;16.00;99.90;;;;;;5034555;28;20049;-56
2022/09/01 02:00:24;;;;;;;4.53;0.90;;;15.90;99.90;;;;;;5034567;28;20052;-57
2022/09/01 02:02:53;;;;;;;2.72;0.90;;;16.00;99.90;;;;;;5034126;28;20045;-58
2022/09/01 02:05:23;;;;;;;3.05;0.70;;;16.00;99.90;;;;;;5016802;28;20361;-57
2022/09/01 02:07:51;;;;;;;2.30;1.00;;;16.00;99.90;;;;;;5033736;28;20084;-57
2022/09/01 02:10:16;;;;;;;1.35;0.90;;;16.00;99.90;;;;;;5034341;28;20050;-57
2022/09/01 02:12:42;;;;;;;1.45;0.80;;;16.00;99.90;;;;;;5034169;28;20443;-57
2022/09/01 02:15:10;;;;;;;1.02;0.80;;;16.00;99.90;;;;;;5034044;28;20049;-58
2022/09/01 02:17:38;;;;;;;1.85;0.70;;;16.00;99.90;;;;;;5034197;28;20049;-57
2022/09/01 02:20:05;;;;;;;2.00;1.00;;;16.00;99.90;;;;;;5034009;28;20050;-57
2022/09/01 02:22:31;;;;;;;3.35;0.95;;;16.00;99.90;;;;;;5034183;28;20100;-58
2022/09/01 02:24:59;;;;;;;1.45;0.85;;;16.00;99.90;;;;;;5034126;28;20084;-57
2022/09/01 02:27:28;;;;;;;1.00;0.90;;;16.00;99.90;;;;;;5033773;28;20045;-56
2022/09/01 02:29:54;;;;;;;1.33;0.90;;;16.00;99.90;;;;;;5033948;28;20046;-56
2022/09/01 02:32:20;;;;;;;2.05;0.80;;;16.00;99.90;;;;;;5033978;28;20045;-57
2022/09/01 02:34:52;;;;;;;0.98;0.82;;;16.00;99.90;;;;;;5042371;28;20109;-58
2022/09/01 02:37:24;;;;;;;1.83;1.10;;;16.00;99.90;;;;;;5053849;28;20053;-56
2022/09/01 02:39:58;;;;;;;1.27;0.90;;;15.90;99.90;;;;;;5053472;28;20511;-56
2022/09/01 02:42:28;;;;;;;2.53;0.82;;;16.00;99.90;;;;;;5035820;28;20399;-56
2022/09/01 02:44:54;;;;;;;0.93;0.80;;;15.90;99.90;;;;;;5053658;28;20099;-57
2022/09/01 02:47:22;;;;;;;1.17;0.90;;;15.90;99.90;;;;;;5053750;28;20434;-57
2022/09/01 02:49:49;;;;;;;3.47;1.10;;;15.90;99.90;;;;;;5053418;28;20491;-56
2022/09/01 02:52:16;;;;;;;2.28;1.10;;;15.90;99.90;;;;;;5036004;28;20053;-56
2022/09/01 02:54:44;;;;;;;1.52;0.90;;;15.80;99.90;;;;;;5053570;28;20467;-56
2022/09/01 02:57:11;;;;;;;1.42;1.08;;;15.70;99.90;;;;;;5053401;28;20396;-57
2022/09/01 02:59:37;;;;;;;3.63;1.00;;;15.70;99.90;;;;;;5054076;28;20131;-57
2022/09/01 03:02:05;;;;;;;1.98;1.35;;;15.70;99.90;;;;;;5053538;28;20049;-56
2022/09/01 03:04:33;;;;;;;1.92;1.00;;;15.70;99.90;;;;;;5053182;28;20435;-56
2022/09/01 03:07:00;;;;;;;1.15;1.05;;;15.70;99.90;;;;;;5053638;28;20049;-58
2022/09/01 03:09:28;;;;;;;2.30;1.05;;;15.70;99.90;;;;;;5053419;28;20041;-57
2022/09/01 03:11:54;;;;;;;0.90;0.88;;;15.60;99.90;;;;;;5053495;28;20119;-59
2022/09/01 03:14:23;;;;;;;1.95;1.33;;;15.60;99.90;;;;;;5053355;28;20051;-57
2022/09/01 03:16:49;;;;;;;1.00;0.90;;;15.60;99.90;;;;;;5053176;28;20052;-57
2022/09/01 03:19:15;;;;;;;1.45;1.05;;;15.50;99.90;;;;;;5055017;28;20045;-57
2022/09/01 03:21:43;;;;;;;2.28;1.50;;;15.50;99.90;;;;;;5057901;28;20048;-57
2022/09/01 03:24:13;;;;;;;2.05;1.45;;;15.50;99.90;;;;;;5057207;28;20048;-57
2022/09/01 03:26:39;;;;;;;2.28;1.00;;;15.50;99.90;;;;;;5057245;28;20055;-58
2022/09/01 03:29:07;;;;;;;1.13;1.00;;;15.50;99.90;;;;;;5057270;28;20045;-57
2022/09/01 03:31:33;;;;;;;3.75;0.90;;;15.50;99.90;;;;;;5057016;28;20084;-57
2022/09/01 03:33:59;;;;;;;3.60;1.05;;;15.50;99.90;;;;;;5057032;28;20112;-57
2022/09/01 03:36:27;;;;;;;1.30;1.00;;;15.50;99.90;;;;;;5056979;28;20064;-58
2022/09/01 03:38:54;;;;;;;1.80;1.00;;;15.50;99.90;;;;;;5056807;28;20071;-58
2022/09/01 03:41:23;;;;;;;1.73;0.88;;;15.50;99.90;;;;;;5057285;28;20491;-57
2022/09/01 03:43:53;;;;;;;1.27;0.98;;;15.50;99.90;;;;;;5039409;28;20049;-58
2022/09/01 03:46:20;;;;;;;0.98;0.88;;;15.50;99.90;;;;;;5056933;28;20045;-57
2022/09/01 03:48:54;;;;;;;1.15;1.05;;;15.50;99.90;;;;;;5056614;28;20488;-57
2022/09/01 03:51:21;;;;;;;2.63;1.00;;;15.50;99.90;;;;;;5056843;28;20121;-57
2022/09/01 03:53:47;;;;;;;1.77;0.88;;;15.50;99.90;;;;;;5056650;28;20427;-57
2022/09/01 03:56:14;;;;;;;1.63;0.98;;;15.50;99.90;;;;;;5056501;28;20478;-56
2022/09/01 03:58:45;;;;;;;3.63;1.10;;;15.50;99.90;;;;;;5056762;28;20091;-57
2022/09/01 04:01:12;;;;;;;2.40;0.80;;;15.50;99.90;;;;;;5056665;28;20052;-57
2022/09/01 04:03:40;;;;;;;10.90;1.17;;;15.50;99.90;;;;;;5056521;28;20445;-57
2022/09/01 04:06:08;;;;;;;1.50;1.10;;;15.50;99.90;;;;;;5056559;28;20128;-57
2022/09/01 04:08:34;;;;;;;1.27;0.70;;;15.50;99.90;;;;;;5056338;28;20573;-57
2022/09/01 04:11:12;;;;;;;2.90;1.05;;;15.40;99.90;;;;;;5056534;28;20095;-57
2022/09/01 04:13:39;;;;;;;2.65;1.00;;;15.50;99.90;;;;;;5056390;28;20057;-57
2022/09/01 04:18:03;;;;;;;1.55;0.82;;;15.40;99.90;;;;;;5056369;28;20041;-58
2022/09/01 04:18:54;;;;;;;0.80;0.80;;;15.40;99.90;;;;;;5055980;28;20087;-58
2022/09/01 04:21:20;;;;;;;1.40;1.02;;;15.40;99.90;;;;;;5056162;28;20065;-57
2022/09/01 04:23:47;;;;;;;3.72;1.20;;;15.40;99.90;;;;;;5056377;28;20088;-57
2022/09/01 04:26:19;;;;;;;3.75;1.10;;;15.40;99.90;;;;;;5056213;28;20080;-57
2022/09/01 04:28:47;;;;;;;1.30;1.05;;;15.30;99.90;;;;;;5055753;28;20048;-57
2022/09/01 04:31:19;;;;;;;3.42;2.17;;;15.30;99.90;;;;;;5037582;28;20049;-58
2022/09/01 04:33:47;;;;;;;2.20;1.23;;;15.30;99.90;;;;;;5055824;28;20045;-57
2022/09/01 04:36:24;;;;;;;2.92;1.30;;;15.30;99.90;;;;;;5056050;28;20060;-57
2022/09/01 04:38:56;;;;;;;5.70;1.25;;;15.20;99.90;;;;;;5055767;28;20037;-57
2022/09/01 04:41:30;;;;;;;2.70;1.08;;;15.20;99.90;;;;;;5054755;28;20045;-58
2022/09/01 04:43:57;;;;;;;2.00;1.10;;;15.20;99.90;;;;;;5055244;28;20484;-57
2022/09/01 04:46:28;;;;;;;2.10;1.50;;;15.10;99.90;;;;;;5055703;28;20395;-57
2022/09/01 04:48:56;;;;;;;7.25;1.20;;;15.10;99.90;;;;;;5055775;28;20045;-58
2022/09/01 04:51:23;;;;;;;1.80;1.30;;;15.00;99.90;;;;;;5055565;28;20500;-56
2022/09/01 04:53:49;;;;;;;1.77;1.10;;;15.00;99.90;;;;;;5036392;28;20056;-58
2022/09/01 04:56:18;;;;;;;1.30;1.13;;;15.00;99.90;;;;;;5055528;28;20045;-57
2022/09/01 04:58:50;;;;;;;2.80;1.10;;;15.00;99.90;;;;;;5037565;28;20063;-57
2022/09/01 05:01:20;;;;;;;1.33;1.02;;;15.00;99.90;;;;;;5055760;28;20049;-57
2022/09/01 05:03:56;;;;;;;2.20;1.10;;;15.00;99.90;;;;;;5055277;28;20045;-57
2022/09/01 05:06:22;;;;;;;1.67;1.52;;;15.10;99.90;;;;;;5055986;28;20053;-57
2022/09/01 05:08:48;;;;;;;4.18;1.17;;;15.10;99.90;;;;;;5055241;28;20499;-57
2022/09/01 05:11:18;;;;;;;4.10;1.88;;;15.00;99.90;;;;;;5037548;28;20399;-57
2022/09/01 05:13:46;;;;;;;2.67;1.10;;;15.00;99.90;;;;;;5055222;28;20049;-57
2022/09/01 05:16:14;;;;;;;2.42;1.38;;;15.00;99.90;;;;;;5055114;28;20555;-57
2022/09/01 05:18:46;;;;;;;2.30;1.40;;;14.90;99.90;;;;;;5055262;28;20041;-57
2022/09/01 05:21:15;;;;;;;2.53;1.42;;;14.90;99.90;;;;;;5054761;28;20084;-57
2022/09/01 05:23:43;;;;;;;3.83;1.40;;;14.90;99.90;;;;;;5055216;28;20060;-57
2022/09/01 05:26:20;;;;;;;4.45;1.40;;;15.00;99.90;;;;;;5037034;28;20048;-57
2022/09/01 05:28:48;;;;;;;4.13;1.77;;;14.90;99.90;;;;;;5054734;28;20492;-58
2022/09/01 05:31:18;;;;;;;4.45;1.65;;;14.90;99.90;;;;;;5054900;28;20554;-58
2022/09/01 05:33:47;;;;;;;3.67;1.80;;;15.00;99.90;;;;;;5054706;28;20399;-58
2022/09/01 05:36:16;;;;;;;4.20;1.60;;;15.00;99.90;;;;;;5055293;28;20048;-58
2022/09/01 05:38:43;;;;;;;3.42;1.20;;;15.00;99.90;;;;;;5054756;28;20045;-58
2022/09/01 05:41:13;;;;;;;2.80;1.55;;;15.20;99.90;;;;;;5054651;28;20106;-58
2022/09/01 05:43:46;;;;;;;2.03;1.33;;;15.30;99.90;;;;;;5053770;28;20049;-58
2022/09/01 05:46:15;;;;;;;4.00;1.58;;;15.20;99.90;;;;;;5054730;28;20049;-58
2022/09/01 05:48:44;;;;;;;4.28;2.33;;;15.30;99.90;;;;;;5054553;28;20120;-56
2022/09/01 05:51:15;;;;;;;2.60;1.67;;;15.40;99.90;;;;;;5054452;28;20055;-57
2022/09/01 05:53:42;;;;;;;2.72;1.60;;;15.50;99.90;;;;;;5054657;28;20196;-57
2022/09/01 05:56:13;;;;;;;3.90;1.80;;;15.60;99.90;;;;;;5054421;28;20045;-58
2022/09/01 05:58:44;;;;;;;20.05;2.30;;;15.60;99.90;;;;;;5054445;28;20056;-58
2022/09/01 06:01:20;;;;;;;5.13;2.20;;;15.80;99.90;;;;;;5036242;28;20052;-57
2022/09/01 06:03:48;;;;;;;9.02;2.50;;;15.80;99.90;;;;;;5054210;28;20426;-57
2022/09/01 06:06:15;;;;;;;6.45;2.50;;;15.90;99.90;;;;;;5054434;28;20057;-57
2022/09/01 06:08:41;;;;;;;5.53;2.30;;;16.00;99.90;;;;;;5054207;28;20554;-58
2022/09/01 06:11:12;;;;;;;5.68;2.80;;;16.00;99.90;;;;;;5035747;28;20057;-58
2022/09/01 06:13:40;;;;;;;4.20;2.20;;;16.10;99.90;;;;;;5035884;28;20052;-58
2022/09/01 06:16:10;;;;;;;3.75;1.77;;;16.10;99.90;;;;;;5054201;28;20041;-58
2022/09/01 06:18:37;;;;;;;8.15;2.00;;;16.20;99.90;;;;;;5054213;28;20080;-57
2022/09/01 06:21:07;;;;;;;3.05;1.58;;;16.10;99.90;;;;;;5054009;28;20483;-58
2022/09/01 06:23:34;;;;;;;2.42;1.50;;;16.10;99.90;;;;;;5054056;28;20124;-58
2022/09/01 06:26:02;;;;;;;5.20;1.80;;;16.10;99.90;;;;;;5054061;28;20084;-57
2022/09/01 06:28:28;;;;;;;2.92;1.35;;;16.10;99.90;;;;;;5053823;28;20045;-57
2022/09/01 06:30:57;;;;;;;2.78;1.50;;;16.20;99.90;;;;;;5053747;28;20099;-58
2022/09/01 06:33:24;;;;;;;5.65;1.45;;;16.40;99.90;;;;;;5053564;28;20049;-57
2022/09/01 06:35:51;;;;;;;2.33;1.50;;;16.50;99.90;;;;;;5053361;28;20080;-57
2022/09/01 06:38:18;;;;;;;4.15;1.38;;;16.40;99.90;;;;;;5053346;28;20045;-57
2022/09/01 06:40:45;;;;;;;3.22;1.30;;;16.50;99.90;;;;;;5053916;28;20049;-57
2022/09/01 06:43:14;;;;;;;4.68;1.67;;;16.80;99.90;;;;;;5053625;28;20045;-57
2022/09/01 06:45:53;;;;;;;2.25;1.30;;;16.90;99.90;;;;;;5035544;28;20052;-58
2022/09/01 06:48:18;;;;;;;2.60;1.30;;;17.00;99.90;;;;;;5053661;28;20045;-58
2022/09/01 06:50:44;;;;;;;7.20;1.38;;;16.90;99.90;;;;;;5053546;28;20505;-58
2022/09/01 06:53:12;;;;;;;5.00;2.00;;;16.90;99.90;;;;;;5053214;28;20045;-56
2022/09/01 06:55:40;;;;;;;2.55;1.00;;;16.80;99.90;;;;;;5053605;28;20060;-57
2022/09/01 06:58:08;;;;;;;4.05;1.35;;;16.70;99.90;;;;;;5053484;28;20048;-58
2022/09/01 07:00:38;;;;;;;2.70;1.38;;;16.70;99.90;;;;;;5035688;28;20045;-58
2022/09/01 07:03:08;;;;;;;2.53;1.80;;;16.70;99.90;;;;;;5053515;28;20045;-58
2022/09/01 07:05:38;;;;;;;1.55;1.35;;;16.70;99.90;;;;;;5053469;28;20084;-56
2022/09/01 07:08:08;;;;;;;3.67;1.50;;;16.80;99.90;;;;;;5053418;28;20456;-57
2022/09/01 07:10:44;;;;;;;2.67;1.60;;;16.80;99.90;;;;;;5053461;28;20045;-57
2022/09/01 07:13:16;;;;;;;1.88;1.30;;;16.80;99.90;;;;;;5053323;28;20045;-58
2022/09/01 07:15:43;;;;;;;4.25;1.45;;;16.80;99.90;;;;;;5053468;28;20045;-57
2022/09/01 07:18:11;;;;;;;2.10;1.40;;;16.80;99.90;;;;;;5053590;28;20115;-57
2022/09/01 07:20:40;;;;;;;1.58;1.20;;;16.80;99.90;;;;;;5034998;28;20107;-57
2022/09/01 07:23:07;;;;;;;2.60;1.20;;;16.90;99.90;;;;;;5053394;28;20053;-57
2022/09/01 07:25:38;;;;;;;1.95;1.25;;;17.10;99.90;;;;;;5053378;28;20128;-57
2022/09/01 07:28:04;;;;;;;7.35;1.90;;;17.20;99.90;;;;;;5053389;28;20438;-57
2022/09/01 07:30:32;;;;;;;4.03;1.30;;;17.30;99.90;;;;;;5052999;28;20555;-57
2022/09/01 07:32:58;;;;;;;2.70;1.20;;;17.40;99.90;;;;;;5053316;28;20054;-58
2022/09/01 07:35:24;;;;;;;2.95;1.20;;;17.50;99.90;;;;;;5039552;28;20057;-57
2022/09/01 07:37:50;;;;;;;3.97;1.30;;;17.60;99.90;;;;;;5033389;28;20045;-57
2022/09/01 07:40:20;;;;;;;4.43;1.98;;;17.70;99.90;;;;;;5033305;28;20411;-58
2022/09/01 07:42:46;;;;;;;2.35;1.20;;;17.70;99.90;;;;;;5015409;28;20045;-57
2022/09/01 07:45:15;;;;;;;1.88;1.10;;;17.70;99.90;;;;;;5033095;28;20057;-58
2022/09/01 07:47:42;;;;;;;1.80;0.98;;;17.70;99.90;;;;;;5033298;28;20057;-58
2022/09/01 07:50:11;;;;;;;2.47;1.10;;;17.80;99.90;;;;;;5015334;28;20115;-58
2022/09/01 07:52:46;;;;;;;3.65;1.30;;;18.00;99.90;;;;;;5033154;28;20049;-58
2022/09/01 07:55:14;;;;;;;4.03;0.98;;;18.20;99.90;;;;;;5033164;28;20049;-58
2022/09/01 07:57:42;;;;;;;3.33;1.10;;;18.80;99.90;;;;;;5015589;28;20049;-57
2022/09/01 08:00:10;;;;;;;4.65;1.70;;;19.20;99.90;;;;;;5033076;28;20050;-57
2022/09/01 08:02:37;;;;;;;2.55;1.10;;;19.20;99.90;;;;;;5032934;28;20042;-58
2022/09/01 08:05:08;;;;;;;3.83;1.20;;;19.20;99.90;;;;;;5032920;28;20056;-58
2022/09/01 08:07:37;;;;;;;2.00;1.30;;;19.40;99.90;;;;;;5036617;28;20050;-58
2022/09/01 08:10:04;;;;;;;2.83;0.93;;;19.40;99.90;;;;;;5036471;28;20048;-58
2022/09/01 08:12:29;;;;;;;5.22;1.08;;;19.70;99.90;;;;;;5036507;28;20042;-57
2022/09/01 08:14:56;;;;;;;3.58;1.70;;;20.20;99.90;;;;;;5018534;28;20053;-57
2022/09/01 08:17:21;;;;;;;6.82;1.00;;;20.50;99.90;;;;;;5036486;28;20096;-57
2022/09/01 08:19:47;;;;;;;1.35;0.85;;;21.00;99.90;;;;;;5036395;28;20049;-59
2022/09/01 08:22:14;;;;;;;3.67;1.10;;;21.10;99.90;;;;;;5036289;28;20377;-57
2022/09/01 08:24:40;;;;;;;2.42;1.02;;;21.30;99.90;;;;;;5036250;28;20435;-58
2022/09/01 08:27:07;;;;;;;1.95;1.13;;;21.50;99.90;;;;;;5036306;28;20400;-57
2022/09/01 08:29:33;;;;;;;1.65;0.90;;;21.90;99.90;;;;;;5036175;28;20116;-58
2022/09/01 08:31:59;;;;;;;2.90;1.00;;;22.30;99.90;;;;;;5036248;28;20128;-58
2022/09/01 08:34:25;;;;;;;2.00;1.08;;;22.50;99.90;;;;;;5041314;28;20187;-56
2022/09/01 08:36:51;;;;;;;4.93;1.05;;;22.80;99.90;;;;;;5056059;28;20462;-58
2022/09/01 08:39:17;;;;;;;3.33;0.90;;;23.00;99.90;;;;;;5055835;28;20537;-57
2022/09/01 08:41:52;;;;;;;2.75;0.70;;;22.80;99.90;;;;;;5055670;28;20506;-57
2022/09/01 08:44:43;;;;;;;2.10;0.75;;;23.10;99.90;;;;;;5055735;28;20045;-57
2022/09/01 08:47:12;;;;;;;5.50;0.90;;;23.30;99.90;;;;;;5055834;28;20040;-58
2022/09/01 08:49:39;;;;;;;1.92;0.90;;;23.50;99.80;;;;;;5055755;28;20049;-57
2022/09/01 08:52:10;;;;;;;8.40;2.20;;;23.60;99.40;;;;;;5037561;28;20392;-58
2022/09/01 08:54:47;;;;;;;3.33;0.60;;;23.90;99.60;;;;;;5055711;28;20404;-57
2022/09/01 08:57:20;;;;;;;1.35;1.00;;;23.80;98.80;;;;;;5055514;28;20047;-57
2022/09/01 08:59:46;;;;;;;2.78;0.90;;;23.80;99.30;;;;;;5055691;28;20041;-58
2022/09/01 09:02:36;;;;;;;1.73;0.88;;;24.00;99.80;;;;;;5055327;28;20488;-58
2022/09/01 09:05:02;;;;;;;;;;;24.20;98.60;;;;;;5056010;28;20430;-58
2022/09/01 09:07:36;;;;;;;3.47;1.00;;;24.10;98.80;;;;;;5055419;28;19916;-58
2022/09/01 09:10:13;;;;;;;4.78;0.80;;;24.60;98.50;;;;;;5055125;28;20426;-58
2022/09/01 09:13:05;;;;;;;2.17;0.75;;;24.70;98.60;;;;;;5037271;28;20518;-57
2022/09/01 09:15:52;;;;;;;13.05;1.23;;;25.00;98.00;;;;;;4974503;28;20049;-57
2022/09/01 09:18:45;;;;;;;2.85;0.77;;;25.10;98.00;;;;;;4974306;28;20549;-57
2022/09/01 09:21:17;;;;;;;2.75;0.90;;;25.60;97.90;;;;;;4974449;28;20043;-58
2022/09/01 09:23:49;;;;;;;2.65;0.70;;;25.30;97.30;;;;;;4974274;28;20513;-57
2022/09/01 09:26:19;;;;;;;2.40;0.80;;;25.20;97.30;;;;;;4974245;28;20511;-57
2022/09/01 09:28:48;;;;;;;3.03;0.75;;;25.30;97.00;;;;;;4974294;28;20060;-58
2022/09/01 09:31:41;;;;;;;3.13;0.65;;;25.50;97.00;;;;;;4974072;28;20170;-57
2022/09/01 09:34:32;;;;;;;4.10;0.77;;;25.60;97.40;;;;;;4973659;28;20059;-56
2022/09/01 09:37:19;;;;;;;2.20;0.80;;;25.50;96.70;;;;;;4974184;28;20051;-57
2022/09/01 09:39:58;;;;;;;1.73;0.70;;;25.70;96.90;;;;;;4973927;28;20481;-58
2022/09/01 09:42:26;;;;;;;1.98;0.70;;;25.40;97.00;;;;;;4974018;28;20058;-58
2022/09/01 09:44:54;;;;;;;2.67;0.57;;;27.10;96.40;;;;;;4973697;28;20055;-57
2022/09/01 09:47:41;;;;;;;5.50;1.05;;;27.90;95.20;;;;;;4973982;28;20051;-57
2022/09/01 09:50:28;;;;;;;0.80;0.45;;;28.20;94.50;;;;;;4973781;28;20457;-56
2022/09/01 09:53:10;;;;;;;1.73;0.93;;;28.80;92.80;;;;;;5027014;28;20107;-57
2022/09/01 09:55:35;;;;;;;1.63;0.60;;;28.60;92.90;;;;;;5054510;28;20051;-57
2022/09/01 09:58:10;;;;;;;6.38;1.17;;;28.40;92.40;;;;;;5054555;28;20135;-57
2022/09/01 10:00:36;;;;;;;1.00;0.68;;;28.80;92.80;;;;;;5054415;28;20377;-57
2022/09/01 10:03:11;;;;;;;1.77;0.60;;;28.20;92.50;;;;;;5054463;28;20052;-57
2022/09/01 10:05:50;;;;;;;1.50;0.47;;;28.60;92.10;;;;;;5054318;28;20045;-57
2022/09/01 10:08:33;;;;;;;2.42;0.73;;;28.70;92.50;;;;;;5054305;28;20045;-57
2022/09/01 10:10:59;;;;;;;6.72;0.80;;;28.70;91.90;;;;;;5054346;28;20099;-58
2022/09/01 10:13:28;;;;;;;1.23;0.70;;;28.60;92.20;;;;;;5053923;28;20049;-58
2022/09/01 10:15:57;;;;;;;3.45;0.73;;;29.10;92.40;;;;;;5054236;28;20107;-57
2022/09/01 10:18:36;;;;;;;3.17;0.65;;;29.30;91.20;;;;;;5054243;28;20070;-57
2022/09/01 10:21:15;;;;;;;3.03;0.80;;;29.60;90.30;;;;;;5054125;28;20087;-56
2022/09/01 10:23:42;;;;;;;1.88;0.80;;;30.40;90.70;;;;;;5036297;28;20087;-57
2022/09/01 10:26:14;;;;;;;4.47;0.90;;;30.00;90.70;;;;;;5053944;28;20492;-57
2022/09/01 10:28:51;;;;;;;2.05;0.60;;;29.40;90.20;;;;;;5053434;28;20128;-57
2022/09/01 10:31:19;;;;;;;6.22;0.93;;;30.40;90.00;;;;;;5054368;28;20476;-57
2022/09/01 10:33:45;;;;;;;3.38;0.73;;;30.20;88.40;;;;;;5053521;28;20049;-58
2022/09/01 10:36:12;;;;;;;1.20;0.60;;;30.30;90.10;;;;;;5034044;28;20045;-58
2022/09/01 10:38:38;;;;;;;2.97;0.67;;;29.80;86.40;;;;;;5033793;28;20544;-57
2022/09/01 10:41:06;;;;;;;3.13;0.75;;;30.40;87.60;;;;;;5033896;28;20363;-58
2022/09/01 10:43:49;;;;;;;2.70;0.60;;;30.40;89.40;;;;;;5033894;28;20052;-57
2022/09/01 10:46:21;;;;;;;2.50;0.85;;;29.30;89.20;;;;;;5033720;28;20103;-58
2022/09/01 10:48:49;;;;;;;4.97;0.80;;;28.20;89.90;;;;;;5033571;28;20104;-58
2022/09/01 10:51:15;;;;;;;1.45;0.60;;;27.60;90.10;;;;;;5033663;28;20037;-57
2022/09/01 10:53:48;;;;;;;1.75;0.60;;;26.70;90.50;;;;;;5033684;28;20068;-57
2022/09/01 10:56:14;;;;;;;1.15;0.60;;;26.70;91.30;;;;;;5033707;28;20073;-58
2022/09/01 10:59:17;;;;;;;1.83;0.77;;;26.50;91.60;;;;;;5015688;28;20501;-57
2022/09/01 11:01:43;;;;;;;6.65;0.82;;;26.50;92.90;;;;;;5033589;28;20496;-57
2022/09/01 11:04:13;;;;;;;5.68;1.23;;;26.00;91.60;;;;;;5033558;28;20096;-57
2022/09/01 11:06:57;;;;;;;2.10;0.60;;;25.70;92.60;;;;;;5033563;28;20048;-57
2022/09/01 11:09:32;;;;;;;1.08;0.60;;;27.20;92.00;;;;;;5033588;28;20046;-57
2022/09/01 11:12:26;;;;;;;3.72;0.60;;;27.60;90.60;;;;;;5033260;28;20092;-57
2022/09/01 11:14:56;;;;;;;3.60;0.65;;;28.50;88.30;;;;;;5033036;28;20064;-56
2022/09/01 11:17:29;;;;;;;3.65;0.88;;;29.80;88.70;;;;;;5033518;28;20099;-57
2022/09/01 11:20:07;;;;;;;1.67;0.77;;;29.30;88.70;;;;;;5033539;28;20051;-56
2022/09/01 11:22:45;;;;;;;1.08;0.52;;;30.10;88.40;;;;;;5033381;28;20096;-57
2022/09/01 11:25:45;;;;;;;0.73;0.50;;;30.40;86.10;;;;;;5033510;28;20050;-57
2022/09/01 11:28:22;;;;;;;1.65;0.57;;;29.60;84.90;;;;;;4953262;29;20474;-57
2022/09/01 11:30:53;;;;;;;0.82;0.50;;;28.00;84.10;;;;;;4953114;29;20051;-57
2022/09/01 11:33:48;;;;;;;3.15;0.60;;;27.10;87.70;;;;;;4953138;29;20055;-56
2022/09/01 11:36:28;;;;;;;2.25;0.70;;;27.00;89.80;;;;;;4991760;28;20499;-56
2022/09/01 11:39:02;;;;;;;2.70;0.60;;;28.50;87.20;;;;;;4991937;28;20081;-57
2022/09/01 11:41:54;;;;;;;1.67;0.70;;;27.30;87.20;;;;;;4995565;28;20124;-57
2022/09/01 11:44:26;;;;;;;1.65;0.80;;;27.20;88.40;;;;;;4995631;28;20058;-57
2022/09/01 11:47:00;;;;;;;2.95;0.90;;;28.30;86.30;;;;;;4995549;28;20050;-58
2022/09/01 11:49:35;;;;;;;3.15;0.50;;;27.60;85.00;;;;;;4995525;28;20081;-57
2022/09/01 11:52:02;;;;;;;1.95;0.77;;;28.50;87.20;;;;;;4995324;28;20058;-57
2022/09/01 11:54:36;;;;;;;0.47;0.43;;;28.90;86.90;;;;;;4995172;28;20133;-57
2022/09/01 11:57:16;;;;;;;2.47;0.80;;;30.10;85.90;;;;;;4995740;28;20097;-57
2022/09/01 11:59:42;;;;;;;3.63;0.65;;;29.80;82.80;;;;;;4995347;28;20061;-57
2022/09/01 12:02:15;;;;;;;5.90;0.60;;;29.20;85.20;;;;;;4995380;28;20046;-57
2022/09/01 12:04:41;;;;;;;1.00;0.50;;;28.00;85.70;;;;;;5067560;28;20490;-57
2022/09/01 12:07:13;;;;;;;0.80;0.50;;;27.50;86.10;;;;;;5058836;28;20044;-57
2022/09/01 12:09:44;;;;;;;2.97;0.60;;;27.90;87.50;;;;;;5076418;28;20500;-57
2022/09/01 12:12:37;;;;;;;1.08;0.70;;;28.10;86.50;;;;;;5076765;28;20094;-58
2022/09/01 12:15:24;;;;;;;2.55;0.65;;;27.50;85.20;;;;;;5076398;28;20115;-57
2022/09/01 12:17:50;;;;;;;2.78;0.60;;;26.50;86.50;;;;;;5058565;28;20479;-57
2022/09/01 12:20:27;;;;;;;1.50;0.65;;;27.10;88.20;;;;;;5076404;28;20041;-57
2022/09/01 12:22:54;;;;;;;2.38;0.50;;;27.50;87.30;;;;;;5058388;28;20368;-57
2022/09/01 12:25:21;;;;;;;0.65;0.47;;;27.00;86.50;;;;;;5076222;28;20056;-58
2022/09/01 12:27:47;;;;;;;1.70;0.70;;;26.50;87.00;;;;;;5076208;28;20056;-58
2022/09/01 12:30:14;;;;;;;2.95;0.70;;;26.60;87.00;;;;;;5076238;28;20519;-57
2022/09/01 12:32:40;;;;;;;3.25;0.60;;;26.40;88.10;;;;;;5076034;28;20090;-57
2022/09/01 12:35:16;;;;;;;1.42;0.73;;;27.10;87.90;;;;;;5075945;28;20048;-57
2022/09/01 12:37:42;;;;;;;2.50;1.00;;;27.80;86.50;;;;;;5076169;28;20048;-57
2022/09/01 12:40:25;;;;;;;1.33;0.57;;;26.80;86.00;;;;;;5076035;28;20434;-58
2022/09/01 12:42:52;;;;;;;2.25;0.75;;;26.70;87.90;;;;;;5076053;28;20040;-57
2022/09/01 12:45:45;;;;;;;1.55;0.60;;;26.20;88.00;;;;;;5076499;28;20056;-58
2022/09/01 12:48:43;;;;;;;1.60;0.63;;;26.70;88.60;;;;;;5075847;28;20071;-58
2022/09/01 12:51:24;;;;;;;1.00;0.70;;;26.80;87.10;;;;;;5013905;28;20052;-58
2022/09/01 12:53:56;;;;;;;1.17;0.60;;;26.30;86.70;;;;;;5013825;28;20049;-58
2022/09/01 12:56:37;;;;;;;3.05;1.00;;;25.80;87.70;;;;;;5013812;28;20132;-58
2022/09/01 12:59:29;;;;;;;0.50;0.50;;;25.70;88.00;;;;;;5013748;28;20049;-57
2022/09/01 13:01:55;;;;;;;0.98;0.50;;;27.00;89.00;;;;;;5011132;28;20046;-58
2022/09/01 13:04:21;;;;;;;3.85;0.60;;;27.40;87.50;;;;;;5014091;28;20153;-58
2022/09/01 13:06:48;;;;;;;3.33;0.70;;;27.50;86.80;;;;;;5013724;28;20057;-58
2022/09/01 13:09:14;;;;;;;1.92;0.77;;;27.30;87.30;;;;;;5013496;28;20524;-57